createdAt,value
2023-01-30T00:01:01.595Z,4.70
2023-01-30T00:03:28.388Z,4.70
2023-01-30T00:05:55.476Z,4.80
2023-01-30T00:08:22.549Z,4.70
2023-01-30T00:10:52.507Z,4.80
2023-01-30T00:13:19.423Z,4.80
2023-01-30T00:15:48.301Z,4.80
2023-01-30T00:18:15.202Z,4.80
2023-01-30T00:20:41.845Z,4.90
2023-01-30T00:23:08.851Z,5.00
2023-01-30T00:25:36.067Z,5.00
2023-01-30T00:28:03.389Z,5.00
2023-01-30T00:30:30.568Z,5.00
2023-01-30T00:32:58.565Z,5.00
2023-01-30T00:35:28.612Z,5.00
2023-01-30T00:37:59.066Z,5.00
2023-01-30T00:40:27.462Z,5.00
2023-01-30T00:43:16.306Z,5.00
2023-01-30T00:46:04.729Z,5.10
2023-01-30T00:48:31.989Z,5.10
2023-01-30T00:50:58.950Z,5.10
2023-01-30T00:53:25.975Z,5.00
2023-01-30T00:55:53.775Z,5.10
2023-01-30T00:58:22.587Z,5.10
2023-01-30T01:00:50.981Z,5.00
2023-01-30T01:03:18.693Z,5.00
2023-01-30T01:05:46.428Z,5.10
2023-01-30T01:08:13.489Z,5.10
2023-01-30T01:10:40.629Z,5.20
2023-01-30T01:13:07.703Z,5.10
2023-01-30T01:15:34.663Z,5.00
2023-01-30T01:18:01.851Z,5.10
2023-01-30T01:20:28.889Z,5.20
2023-01-30T01:22:58.701Z,5.10
2023-01-30T01:25:25.715Z,5.10
2023-01-30T01:27:54.162Z,5.20
2023-01-30T01:30:21.233Z,5.20
2023-01-30T01:32:48.181Z,5.10
2023-01-30T01:35:15.558Z,5.10
2023-01-30T01:37:42.578Z,5.10
2023-01-30T01:40:38.455Z,5.20
2023-01-30T01:43:22.686Z,5.30
2023-01-30T01:46:11.830Z,5.20
2023-01-30T01:48:47.335Z,5.30
2023-01-30T01:51:25.168Z,5.30
2023-01-30T01:54:01.809Z,5.30
2023-01-30T01:56:31.016Z,5.30
2023-01-30T01:59:03.946Z,5.40
2023-01-30T02:01:31.626Z,5.40
2023-01-30T02:04:03.118Z,5.40
2023-01-30T02:06:30.966Z,5.50
2023-01-30T02:09:02.668Z,5.40
2023-01-30T02:11:49.810Z,5.50
2023-01-30T02:14:19.481Z,5.50
2023-01-30T02:16:47.206Z,5.50
2023-01-30T02:19:41.070Z,5.60
2023-01-30T02:22:29.789Z,5.70
2023-01-30T02:25:13.893Z,5.70
2023-01-30T02:28:30.426Z,5.70
2023-01-30T02:31:15.885Z,5.60
2023-01-30T02:33:42.911Z,5.70
2023-01-30T02:36:41.922Z,5.60
2023-01-30T02:39:29.021Z,5.60
2023-01-30T02:42:05.272Z,5.70
2023-01-30T02:44:53.154Z,5.70
2023-01-30T02:47:29.987Z,5.70
2023-01-30T02:50:08.383Z,5.70
2023-01-30T02:52:37.302Z,5.70
2023-01-30T02:55:22.290Z,5.70
2023-01-30T02:57:49.303Z,5.80
2023-01-30T03:00:21.376Z,5.90
2023-01-30T03:03:10.819Z,5.90
2023-01-30T03:06:24.531Z,5.90
2023-01-30T03:09:33.644Z,5.90
2023-01-30T03:12:38.073Z,6.00
2023-01-30T03:15:29.603Z,5.80
2023-01-30T03:17:57.171Z,5.80
2023-01-30T03:20:23.914Z,5.90
2023-01-30T03:22:51.070Z,5.90
2023-01-30T03:25:22.353Z,6.00
2023-01-30T03:27:51.596Z,6.00
2023-01-30T03:30:18.821Z,6.00
2023-01-30T03:32:45.670Z,6.00
2023-01-30T03:35:13.014Z,6.00
2023-01-30T03:37:39.742Z,6.10
2023-01-30T03:40:07.415Z,6.10
2023-01-30T03:42:35.644Z,6.00
2023-01-30T03:45:02.484Z,6.10
2023-01-30T03:47:33.460Z,6.10
2023-01-30T03:50:00.112Z,6.10
2023-01-30T03:52:26.999Z,6.10
2023-01-30T03:54:54.027Z,6.10
2023-01-30T03:57:21.040Z,6.10
2023-01-30T03:59:48.151Z,6.10
2023-01-30T04:02:15.366Z,6.20
2023-01-30T04:04:42.165Z,6.30
2023-01-30T04:07:09.229Z,6.30
2023-01-30T04:09:36.268Z,6.20
2023-01-30T04:12:03.404Z,6.20
2023-01-30T04:14:30.372Z,6.20
2023-01-30T04:16:57.509Z,6.20
2023-01-30T04:19:27.545Z,6.20
2023-01-30T04:21:54.384Z,6.20
2023-01-30T04:24:24.428Z,6.30
2023-01-30T04:26:51.248Z,6.30
2023-01-30T04:29:17.985Z,6.40
2023-01-30T04:31:45.059Z,6.30
2023-01-30T04:34:14.213Z,6.20
2023-01-30T04:36:41.753Z,6.30
2023-01-30T04:39:08.643Z,6.30
2023-01-30T04:41:35.677Z,6.30
2023-01-30T04:44:02.786Z,6.40
2023-01-30T04:46:29.783Z,6.50
2023-01-30T04:48:56.857Z,6.60
2023-01-30T04:51:23.902Z,6.60
2023-01-30T04:53:50.923Z,6.50
2023-01-30T04:56:17.999Z,6.50
2023-01-30T04:58:45.009Z,6.50
2023-01-30T05:01:20.940Z,6.60
2023-01-30T05:03:51.001Z,6.60
2023-01-30T05:06:18.560Z,6.60
2023-01-30T05:08:49.479Z,6.60
2023-01-30T05:11:16.319Z,6.60
2023-01-30T05:13:46.549Z,6.50
2023-01-30T05:16:15.102Z,6.50
2023-01-30T05:18:42.447Z,6.50
2023-01-30T05:21:12.283Z,6.60
2023-01-30T05:23:39.109Z,6.60
2023-01-30T05:26:06.518Z,6.70
2023-01-30T05:28:33.969Z,6.60
2023-01-30T05:31:10.226Z,6.60
2023-01-30T05:33:38.408Z,6.70
2023-01-30T05:36:05.702Z,6.70
2023-01-30T05:38:33.491Z,6.80
2023-01-30T05:41:08.456Z,6.70
2023-01-30T05:43:35.640Z,6.70
2023-01-30T05:46:06.109Z,6.70
2023-01-30T05:48:33.731Z,6.70
2023-01-30T05:51:00.513Z,6.80
2023-01-30T05:53:30.069Z,6.80
2023-01-30T05:55:58.860Z,6.70
2023-01-30T05:58:27.681Z,6.70
2023-01-30T06:00:54.513Z,6.70
2023-01-30T06:03:21.572Z,6.70
2023-01-30T06:05:48.600Z,6.80
2023-01-30T06:08:15.631Z,6.80
2023-01-30T06:10:42.682Z,6.80
2023-01-30T06:13:12.674Z,6.90
2023-01-30T06:15:39.630Z,6.90
2023-01-30T06:18:06.682Z,6.90
2023-01-30T06:20:33.306Z,7.00
2023-01-30T06:23:00.373Z,7.00
2023-01-30T06:25:27.581Z,7.20
2023-01-30T06:27:54.492Z,7.30
2023-01-30T06:30:21.631Z,7.30
2023-01-30T06:32:53.845Z,7.20
2023-01-30T06:35:20.989Z,7.30
2023-01-30T06:37:48.025Z,7.20
2023-01-30T06:40:15.135Z,7.30
2023-01-30T06:42:46.454Z,7.30
2023-01-30T06:45:14.834Z,7.30
2023-01-30T06:47:52.896Z,7.40
2023-01-30T06:50:24.171Z,7.40
2023-01-30T06:52:52.835Z,7.40
2023-01-30T06:55:22.524Z,7.40
2023-01-30T06:57:49.443Z,7.40
2023-01-30T07:00:17.440Z,7.40
2023-01-30T07:02:45.166Z,7.50
2023-01-30T07:05:12.317Z,7.50
2023-01-30T07:07:39.489Z,7.50
2023-01-30T07:10:10.943Z,7.60
2023-01-30T07:12:37.924Z,7.60
2023-01-30T07:15:09.385Z,7.60
2023-01-30T07:17:36.377Z,7.60
2023-01-30T07:20:05.873Z,7.70
2023-01-30T07:22:35.046Z,7.70
2023-01-30T07:25:02.983Z,7.80
2023-01-30T07:27:34.480Z,7.80
2023-01-30T07:30:01.257Z,7.90
2023-01-30T07:32:30.665Z,7.80
2023-01-30T07:34:57.648Z,7.80
2023-01-30T07:37:25.479Z,7.70
2023-01-30T07:39:52.542Z,7.70
2023-01-30T07:42:19.604Z,7.60
2023-01-30T07:44:48.741Z,7.50
2023-01-30T07:47:15.771Z,7.60
2023-01-30T07:49:42.774Z,7.60
2023-01-30T07:52:10.000Z,7.70
2023-01-30T07:54:36.873Z,7.70
2023-01-30T07:57:06.213Z,7.60
2023-01-30T07:59:32.993Z,7.60
2023-01-30T08:02:00.114Z,7.80
2023-01-30T08:04:27.129Z,7.80
2023-01-30T08:06:54.143Z,7.80
2023-01-30T08:09:20.858Z,7.80
2023-01-30T08:11:47.878Z,7.90
2023-01-30T08:14:14.943Z,7.90
2023-01-30T08:16:42.080Z,8.00
2023-01-30T08:19:09.051Z,7.90
2023-01-30T08:21:36.127Z,8.00
2023-01-30T08:24:03.227Z,8.10
2023-01-30T08:26:30.193Z,8.00
2023-01-30T08:28:57.032Z,7.90
2023-01-30T08:31:23.961Z,8.00
2023-01-30T08:33:50.907Z,8.00
2023-01-30T08:36:17.936Z,8.10
2023-01-30T08:38:45.012Z,8.10
2023-01-30T08:41:12.012Z,8.10
2023-01-30T08:43:39.063Z,8.20
2023-01-30T08:46:06.260Z,8.30
2023-01-30T08:48:43.514Z,8.50
2023-01-30T08:51:15.807Z,8.70
2023-01-30T08:53:43.658Z,8.80
2023-01-30T08:56:10.797Z,8.80
2023-01-30T08:58:37.743Z,8.90
2023-01-30T09:01:07.557Z,8.90
2023-01-30T09:03:39.406Z,8.90
2023-01-30T09:06:08.266Z,9.00
2023-01-30T09:08:35.170Z,9.10
2023-01-30T09:11:04.387Z,9.00
2023-01-30T09:13:31.856Z,9.00
2023-01-30T09:15:59.110Z,9.10
2023-01-30T09:18:26.209Z,9.00
2023-01-30T09:20:53.866Z,8.90
2023-01-30T09:23:20.933Z,8.80
2023-01-30T09:25:48.107Z,8.80
2023-01-30T09:28:15.029Z,8.70
2023-01-30T09:30:41.849Z,8.70
2023-01-30T09:33:09.914Z,8.70
2023-01-30T09:35:36.974Z,8.60
2023-01-30T09:38:05.677Z,8.70
2023-01-30T09:40:36.403Z,8.70
2023-01-30T09:43:32.481Z,8.60
2023-01-30T09:46:49.783Z,8.70
2023-01-30T09:49:56.570Z,8.80
2023-01-30T09:52:43.567Z,8.70
2023-01-30T09:55:20.525Z,8.80
2023-01-30T09:57:51.765Z,8.80
2023-01-30T10:00:56.354Z,8.80
2023-01-30T10:03:59.668Z,8.90
2023-01-30T10:06:27.184Z,8.90
2023-01-30T10:09:28.989Z,8.70
2023-01-30T10:11:58.395Z,8.80
2023-01-30T10:14:57.850Z,8.90
2023-01-30T10:18:03.687Z,9.00
2023-01-30T10:20:32.496Z,8.90
2023-01-30T10:23:26.956Z,9.10
2023-01-30T10:25:58.578Z,9.10
2023-01-30T10:28:27.877Z,9.30
2023-01-30T10:31:05.653Z,9.80
2023-01-30T10:33:36.497Z,11.30
2023-01-30T10:36:07.425Z,13.50
2023-01-30T10:38:55.289Z,15.00
2023-01-30T10:41:47.045Z,16.80
2023-01-30T10:44:15.205Z,18.00
2023-01-30T10:47:19.815Z,19.00
2023-01-30T10:49:54.488Z,19.60
2023-01-30T10:52:33.397Z,20.20
2023-01-30T10:55:08.261Z,20.80
2023-01-30T10:58:13.879Z,21.00
2023-01-30T11:01:24.014Z,21.20
2023-01-30T11:03:56.722Z,21.60
2023-01-30T11:06:29.235Z,21.20
2023-01-30T11:08:56.720Z,21.50
2023-01-30T11:11:39.553Z,21.90
2023-01-30T11:14:11.777Z,21.90
2023-01-30T11:16:54.875Z,22.00
2023-01-30T11:19:32.740Z,21.40
2023-01-30T11:22:06.463Z,21.40
2023-01-30T11:24:41.313Z,21.60
2023-01-30T11:27:25.328Z,21.80
2023-01-30T11:30:10.326Z,21.10
2023-01-30T11:32:41.197Z,19.40
2023-01-30T11:35:07.931Z,17.80
2023-01-30T11:37:37.724Z,16.20
2023-01-30T11:40:23.868Z,15.10
2023-01-30T11:42:53.563Z,14.00
2023-01-30T11:45:26.805Z,13.30
2023-01-30T11:48:02.411Z,12.60
2023-01-30T11:51:05.465Z,12.30
2023-01-30T11:53:39.878Z,11.80
2023-01-30T11:56:20.386Z,11.90
2023-01-30T11:58:58.091Z,11.60
2023-01-30T12:01:34.342Z,11.30
2023-01-30T12:04:05.378Z,10.80
2023-01-30T12:06:34.821Z,10.70
2023-01-30T12:09:04.360Z,11.10
2023-01-30T12:11:37.072Z,11.30
2023-01-30T12:14:16.679Z,11.50
2023-01-30T12:16:51.316Z,11.50
2023-01-30T12:19:21.327Z,11.50
2023-01-30T12:22:01.668Z,11.90
2023-01-30T12:24:59.639Z,12.20
2023-01-30T12:27:48.716Z,12.20
2023-01-30T12:30:28.413Z,12.00
2023-01-30T12:35:47.505Z,11.50
2023-01-30T12:39:08.380Z,10.70
2023-01-30T12:41:58.786Z,10.10
2023-01-30T12:44:36.022Z,10.10
2023-01-30T12:47:29.162Z,10.30
2023-01-30T12:50:14.327Z,10.30
2023-01-30T12:52:44.529Z,10.90
2023-01-30T12:55:32.807Z,11.70
2023-01-30T12:58:06.367Z,11.70
2023-01-30T13:00:45.249Z,12.00
2023-01-30T13:03:14.976Z,13.60
2023-01-30T13:05:44.623Z,13.50
2023-01-30T13:08:42.683Z,13.40
2023-01-30T13:11:21.947Z,13.00
2023-01-30T13:14:09.874Z,12.40
2023-01-30T13:16:52.549Z,11.20
2023-01-30T13:19:43.959Z,10.60
2023-01-30T13:22:39.423Z,10.40
2023-01-30T13:25:46.845Z,10.60
2023-01-30T13:28:18.379Z,10.80
2023-01-30T13:30:48.583Z,11.80
2023-01-30T13:33:28.466Z,12.50
2023-01-30T13:36:15.614Z,12.40
2023-01-30T13:38:57.932Z,11.10
2023-01-30T13:41:25.218Z,10.20
2023-01-30T13:43:54.788Z,9.70
2023-01-30T13:46:28.433Z,9.40
2023-01-30T13:49:11.185Z,9.20
2023-01-30T13:51:46.831Z,9.30
2023-01-30T13:54:27.376Z,9.30
2023-01-30T13:57:04.568Z,9.20
2023-01-30T14:00:05.978Z,9.20
2023-01-30T14:02:33.857Z,9.60
2023-01-30T14:05:04.073Z,9.60
2023-01-30T14:07:40.572Z,9.80
2023-01-30T14:10:25.663Z,10.10
2023-01-30T14:12:54.186Z,10.30
2023-01-30T14:15:29.566Z,10.60
2023-01-30T14:18:07.285Z,10.50
2023-01-30T14:20:37.329Z,10.30
2023-01-30T14:23:24.120Z,9.70
2023-01-30T14:25:56.421Z,9.50
2023-01-30T14:28:23.690Z,9.00
2023-01-30T14:30:55.628Z,9.10
2023-01-30T14:33:22.412Z,9.40
2023-01-30T14:36:15.196Z,9.50
2023-01-30T14:38:45.259Z,9.20
2023-01-30T14:41:38.138Z,9.50
2023-01-30T14:44:05.049Z,9.90
2023-01-30T14:46:32.900Z,10.60
2023-01-30T14:49:05.629Z,10.90
2023-01-30T14:51:32.637Z,10.80
2023-01-30T14:54:12.406Z,10.70
2023-01-30T14:56:50.591Z,10.80
2023-01-30T14:59:17.587Z,10.70
2023-01-30T15:02:12.614Z,10.80
2023-01-30T15:05:08.617Z,10.80
2023-01-30T15:07:44.178Z,10.50
2023-01-30T15:10:41.360Z,10.10
2023-01-30T15:13:52.959Z,9.90
2023-01-30T15:16:41.145Z,9.60
2023-01-30T15:19:16.878Z,9.20
2023-01-30T15:21:51.093Z,9.10
2023-01-30T15:24:57.317Z,9.00
2023-01-30T15:27:52.250Z,9.00
2023-01-30T15:30:25.255Z,9.20
2023-01-30T15:33:19.859Z,9.00
2023-01-30T15:35:49.631Z,9.00
2023-01-30T15:38:25.263Z,8.80
2023-01-30T15:41:05.996Z,8.70
2023-01-30T15:43:58.504Z,8.60
2023-01-30T15:46:37.334Z,8.50
2023-01-30T15:49:18.446Z,8.30
2023-01-30T15:51:46.459Z,8.30
2023-01-30T15:54:22.630Z,8.20
2023-01-30T15:56:50.005Z,8.00
2023-01-30T15:59:39.917Z,8.00
2023-01-30T16:02:13.762Z,8.00
2023-01-30T16:04:40.793Z,8.10
2023-01-30T16:07:17.620Z,8.10
2023-01-30T16:10:07.416Z,8.10
2023-01-30T16:12:40.739Z,8.10
2023-01-30T16:15:35.623Z,8.10
2023-01-30T16:18:05.920Z,8.00
2023-01-30T16:21:01.509Z,8.00
2023-01-30T16:23:32.127Z,7.90
2023-01-30T16:25:59.579Z,7.80
2023-01-30T16:28:31.123Z,7.80
2023-01-30T16:31:02.997Z,7.60
2023-01-30T16:33:36.205Z,7.50
2023-01-30T16:36:23.581Z,7.60
2023-01-30T16:38:51.397Z,7.60
2023-01-30T16:41:40.997Z,7.70
2023-01-30T16:44:24.207Z,7.60
2023-01-30T16:46:53.771Z,7.60
2023-01-30T16:49:24.522Z,7.60
2023-01-30T16:52:11.262Z,7.60
2023-01-30T16:54:41.058Z,7.60
2023-01-30T16:57:18.317Z,7.60
2023-01-30T16:59:47.774Z,7.50
2023-01-30T17:02:33.509Z,7.50
2023-01-30T17:05:18.964Z,7.60
2023-01-30T17:07:47.195Z,7.70
2023-01-30T17:10:37.228Z,7.70
2023-01-30T17:13:04.711Z,7.70
2023-01-30T17:15:33.264Z,7.80
2023-01-30T17:18:00.776Z,7.80
2023-01-30T17:20:35.758Z,7.80
2023-01-30T17:23:08.329Z,7.80
2023-01-30T17:25:43.004Z,7.80
2023-01-30T17:28:16.748Z,7.90
2023-01-30T17:30:43.505Z,8.00
2023-01-30T17:33:12.683Z,8.20
2023-01-30T17:35:40.426Z,8.30
2023-01-30T17:38:10.930Z,8.30
2023-01-30T17:40:38.620Z,8.30
2023-01-30T17:43:09.681Z,8.40
2023-01-30T17:45:36.831Z,8.40
2023-01-30T17:48:03.964Z,8.30
2023-01-30T17:50:32.375Z,8.30
2023-01-30T17:52:59.064Z,8.20
2023-01-30T17:55:26.390Z,8.20
2023-01-30T17:57:57.586Z,8.30
2023-01-30T18:00:24.394Z,8.30
2023-01-30T18:02:51.665Z,8.30
2023-01-30T18:05:18.465Z,8.30
2023-01-30T18:07:48.728Z,8.20
2023-01-30T18:10:19.709Z,8.20
2023-01-30T18:12:46.979Z,8.00
2023-01-30T18:15:17.497Z,8.10
2023-01-30T18:17:49.611Z,8.00
2023-01-30T18:20:20.362Z,7.90
2023-01-30T18:22:47.407Z,8.00
2023-01-30T18:25:15.600Z,8.00
2023-01-30T18:27:44.218Z,8.00
2023-01-30T18:30:17.491Z,8.00
2023-01-30T18:32:52.639Z,8.00
2023-01-30T18:35:21.451Z,7.80
2023-01-30T18:37:49.822Z,7.70
2023-01-30T18:40:26.587Z,7.70
2023-01-30T18:42:53.445Z,7.50
2023-01-30T18:45:20.352Z,7.50
2023-01-30T18:47:48.284Z,7.50
2023-01-30T18:50:15.646Z,7.50
2023-01-30T18:52:48.126Z,7.50
2023-01-30T18:55:15.086Z,7.40
2023-01-30T18:57:42.139Z,7.30
2023-01-30T19:00:09.449Z,7.20
2023-01-30T19:02:36.292Z,7.20
2023-01-30T19:05:03.443Z,7.10
2023-01-30T19:07:30.349Z,7.00
2023-01-30T19:09:57.385Z,6.90
2023-01-30T19:12:43.323Z,7.00
2023-01-30T19:15:10.456Z,7.10
2023-01-30T19:17:39.848Z,7.30
2023-01-30T19:20:11.968Z,7.20
2023-01-30T19:22:39.442Z,7.30
2023-01-30T19:25:08.043Z,7.30
2023-01-30T19:27:38.199Z,7.30
2023-01-30T19:30:05.547Z,7.40
2023-01-30T19:32:32.416Z,7.40
2023-01-30T19:34:59.403Z,7.30
2023-01-30T19:37:26.445Z,7.50
2023-01-30T19:39:53.538Z,7.30
2023-01-30T19:42:20.659Z,7.20
2023-01-30T19:44:47.588Z,7.10
2023-01-30T19:47:14.740Z,6.90
2023-01-30T19:49:42.319Z,6.90
2023-01-30T19:52:09.148Z,6.70
2023-01-30T19:54:36.216Z,6.60
2023-01-30T19:57:03.294Z,6.60
2023-01-30T19:59:30.360Z,6.60
2023-01-30T20:01:57.356Z,6.40
2023-01-30T20:04:24.447Z,6.40
2023-01-30T20:06:51.436Z,6.40
2023-01-30T20:09:19.184Z,6.50
2023-01-30T20:11:46.029Z,6.60
2023-01-30T20:14:13.042Z,6.70
2023-01-30T20:16:40.515Z,6.70
2023-01-30T20:19:13.848Z,6.70
2023-01-30T20:21:43.146Z,6.60
2023-01-30T20:24:14.244Z,6.70
2023-01-30T20:26:41.547Z,6.70
2023-01-30T20:29:09.497Z,6.60
2023-01-30T20:31:38.346Z,6.60
2023-01-30T20:34:10.489Z,6.60
2023-01-30T20:36:37.321Z,6.60
2023-01-30T20:39:06.474Z,6.40
2023-01-30T20:41:35.559Z,6.50
2023-01-30T20:44:03.803Z,6.30
2023-01-30T20:46:41.049Z,6.30
2023-01-30T20:49:21.412Z,6.30
2023-01-30T20:51:50.768Z,6.40
2023-01-30T20:54:21.812Z,6.30
2023-01-30T20:56:51.081Z,6.30
2023-01-30T20:59:20.604Z,6.30
2023-01-30T21:01:47.493Z,6.20
2023-01-30T21:04:17.776Z,6.20
2023-01-30T21:06:46.438Z,6.30
2023-01-30T21:09:19.606Z,6.30
2023-01-30T21:11:47.254Z,6.30
2023-01-30T21:14:14.777Z,6.40
2023-01-30T21:16:42.374Z,6.50
2023-01-30T21:19:14.055Z,6.40
2023-01-30T21:21:53.994Z,6.30
2023-01-30T21:24:28.137Z,6.10
2023-01-30T21:26:56.189Z,6.00
2023-01-30T21:29:25.756Z,5.90
2023-01-30T21:31:55.733Z,5.90
2023-01-30T21:34:25.124Z,5.90
2023-01-30T21:37:15.126Z,5.80
2023-01-30T21:40:03.591Z,5.70
2023-01-30T21:42:48.905Z,5.70
2023-01-30T21:45:15.978Z,5.70
2023-01-30T21:47:42.972Z,5.60
2023-01-30T21:50:10.407Z,5.60
2023-01-30T21:52:37.880Z,5.50
2023-01-30T21:55:07.803Z,5.50
2023-01-30T21:57:36.880Z,5.30
2023-01-30T22:00:04.182Z,5.30
2023-01-30T22:02:31.031Z,5.30
2023-01-30T22:04:58.006Z,5.30
2023-01-30T22:07:27.145Z,5.20
2023-01-30T22:09:54.180Z,5.20
2023-01-30T22:12:23.800Z,5.20
2023-01-30T22:14:50.701Z,5.20
2023-01-30T22:17:17.765Z,5.30
2023-01-30T22:19:45.354Z,5.30
2023-01-30T22:22:12.294Z,5.30
2023-01-30T22:24:39.675Z,5.20
2023-01-30T22:27:06.347Z,5.20
2023-01-30T22:29:35.109Z,5.10
2023-01-30T22:32:02.153Z,5.10
2023-01-30T22:34:29.138Z,5.10
2023-01-30T22:36:57.341Z,5.10
2023-01-30T22:39:26.536Z,5.10
2023-01-30T22:41:56.028Z,5.00
2023-01-30T22:44:23.077Z,5.00
2023-01-30T22:46:51.816Z,4.90
2023-01-30T22:49:18.800Z,4.80
2023-01-30T22:51:45.472Z,4.70
2023-01-30T22:54:18.081Z,4.70
2023-01-30T22:56:46.490Z,4.60
2023-01-30T22:59:14.429Z,4.60
2023-01-30T23:01:44.734Z,4.50
2023-01-30T23:04:14.753Z,4.50
2023-01-30T23:06:42.386Z,4.50
2023-01-30T23:09:15.022Z,4.40
2023-01-30T23:12:09.508Z,4.50
2023-01-30T23:14:37.923Z,4.40
2023-01-30T23:17:25.825Z,4.30
2023-01-30T23:19:53.596Z,4.40
2023-01-30T23:22:20.552Z,4.30
2023-01-30T23:24:48.655Z,4.10
2023-01-30T23:27:15.818Z,4.10
2023-01-30T23:29:42.989Z,4.10
2023-01-30T23:32:10.786Z,4.10
2023-01-30T23:34:37.793Z,4.10
2023-01-30T23:37:04.860Z,4.10
2023-01-30T23:39:32.660Z,4.30
2023-01-30T23:41:59.288Z,4.10
2023-01-30T23:44:25.999Z,4.00
2023-01-30T23:46:52.978Z,4.00
2023-01-30T23:49:19.727Z,3.90
2023-01-30T23:51:46.681Z,3.90
2023-01-30T23:54:15.836Z,3.90
2023-01-30T23:56:44.788Z,3.90
2023-01-30T23:59:14.790Z,4.00
